Terminal Aerodrome Forecast
Issued by NWS

Home | Current Version | Previous Version | Text Only | Print | Product List | Glossary On
Versions: 1 2 3 4 5 6 7 8 9 10 11 12 13 14 15 16 17 18 19
558
FTPA31 PHFO 272209 CCA
TAFHKO
TAF COR
PHKO 272209Z 2722/2818 19010KT P6SM SCT060
     FM280300 17006KT P6SM VCSH SCT025 BKN045
     FM280600 12005KT P6SM FEW025 SCT045=

USA.gov is the U.S. government's official web portal to all federal, state and local government web resources and services.